createdAt,value
2018-07-03T00:00:22.000Z,31.1
2018-07-03T00:02:22.000Z,31.1
2018-07-03T00:04:22.000Z,31
2018-07-03T00:06:22.000Z,30.9
2018-07-03T00:07:22.000Z,30.9
2018-07-03T00:09:07.000Z,31
2018-07-03T00:10:22.000Z,30.9
2018-07-03T00:11:22.000Z,31
2018-07-03T00:13:22.000Z,31
2018-07-03T00:14:22.000Z,31.1
2018-07-03T00:15:22.000Z,31.1
2018-07-03T00:17:22.000Z,31.1
2018-07-03T00:19:22.000Z,30.9
2018-07-03T00:21:22.000Z,30.9
2018-07-03T00:23:07.000Z,30.9
2018-07-03T00:24:22.000Z,30.8
2018-07-03T00:26:22.000Z,30.9
2018-07-03T00:28:22.000Z,30.9
2018-07-03T00:29:22.000Z,30.9
2018-07-03T00:31:22.000Z,30.9
2018-07-03T00:33:07.000Z,31
2018-07-03T00:34:22.000Z,30.9
2018-07-03T00:35:22.000Z,30.9
2018-07-03T00:37:22.000Z,31
2018-07-03T00:38:22.000Z,31
2018-07-03T00:39:22.000Z,31.1
2018-07-03T00:40:22.000Z,31.1
2018-07-03T00:42:22.000Z,31.1
2018-07-03T00:44:22.000Z,31.1
2018-07-03T00:46:22.000Z,31
2018-07-03T00:47:22.000Z,31
2018-07-03T00:49:07.000Z,31.1
2018-07-03T00:50:22.000Z,31.1
2018-07-03T00:51:22.000Z,31.1
2018-07-03T00:53:22.000Z,31.1
2018-07-03T00:54:22.000Z,31.1
2018-07-03T00:56:22.000Z,31.1
2018-07-03T00:57:22.000Z,31.1
2018-07-03T00:58:22.000Z,31.1
2018-07-03T01:00:22.000Z,31.1
2018-07-03T01:02:07.000Z,31.1
2018-07-03T01:03:22.000Z,31
2018-07-03T01:05:22.000Z,31
2018-07-03T01:06:22.000Z,31
2018-07-03T01:08:22.000Z,31.1
2018-07-03T01:10:22.000Z,31
2018-07-03T01:11:22.000Z,31
2018-07-03T01:12:22.000Z,31.1
2018-07-03T01:14:22.000Z,31.1
2018-07-03T01:15:22.000Z,31.1
2018-07-03T01:17:22.000Z,31.1
2018-07-03T01:18:22.000Z,31.1
2018-07-03T01:20:22.000Z,31.2
2018-07-03T01:22:22.000Z,31.1
2018-07-03T01:23:22.000Z,31.1
2018-07-03T01:24:22.000Z,31.1
2018-07-03T01:25:22.000Z,31.1
2018-07-03T01:27:22.000Z,31.1
2018-07-03T01:29:22.000Z,31.1
2018-07-03T01:31:22.000Z,31
2018-07-03T01:33:22.000Z,31
2018-07-03T01:34:22.000Z,31
2018-07-03T01:35:22.000Z,31
2018-07-03T01:37:22.000Z,31.1
2018-07-03T01:39:22.000Z,31.1
2018-07-03T01:40:22.000Z,31.1
2018-07-03T01:42:22.000Z,31
2018-07-03T01:43:22.000Z,31
2018-07-03T01:44:22.000Z,31
2018-07-03T01:46:22.000Z,30.9
2018-07-03T01:48:22.000Z,30.9
2018-07-03T01:50:22.000Z,30.8
2018-07-03T01:52:22.000Z,30.7
2018-07-03T01:53:22.000Z,30.7
2018-07-03T01:54:22.000Z,30.7
2018-07-03T01:55:22.000Z,30.8
2018-07-03T01:57:22.000Z,30.8
2018-07-03T01:58:22.000Z,30.8
2018-07-03T02:00:22.000Z,30.8
2018-07-03T02:02:22.000Z,30.8
2018-07-03T02:03:22.000Z,30.8
2018-07-03T02:04:22.000Z,30.9
2018-07-03T02:06:22.000Z,31
2018-07-03T02:07:22.000Z,31
2018-07-03T02:09:22.000Z,31
2018-07-03T02:11:22.000Z,31
2018-07-03T02:13:22.000Z,30.9
2018-07-03T02:15:22.000Z,30.8
2018-07-03T02:16:22.000Z,30.8
2018-07-03T02:17:22.000Z,30.8
2018-07-03T02:19:22.000Z,30.8
2018-07-03T02:20:22.000Z,30.8
2018-07-03T02:22:07.000Z,30.8
2018-07-03T02:23:22.000Z,30.8
2018-07-03T02:25:22.000Z,30.7
2018-07-03T02:27:22.000Z,30.7
2018-07-03T02:28:22.000Z,30.7
2018-07-03T02:30:07.000Z,30.8
2018-07-03T02:31:22.000Z,30.8
2018-07-03T02:33:22.000Z,30.8
2018-07-03T02:35:22.000Z,30.7
2018-07-03T02:37:22.000Z,30.7
2018-07-03T02:38:22.000Z,30.7
2018-07-03T02:40:22.000Z,30.8
2018-07-03T02:42:22.000Z,30.8
2018-07-03T02:43:22.000Z,30.8
2018-07-03T02:45:22.000Z,30.8
2018-07-03T02:47:22.000Z,30.8
2018-07-03T02:49:07.000Z,30.8
2018-07-03T02:50:22.000Z,30.8
2018-07-03T02:51:22.000Z,30.8
2018-07-03T02:53:07.000Z,30.9
2018-07-03T02:54:22.000Z,30.8
2018-07-03T02:56:22.000Z,30.8
2018-07-03T02:57:22.000Z,30.8
2018-07-03T02:59:22.000Z,30.9
2018-07-03T03:00:22.000Z,30.9
2018-07-03T03:02:22.000Z,30.9
2018-07-03T03:03:22.000Z,30.9
2018-07-03T03:05:22.000Z,30.9
2018-07-03T03:07:22.000Z,30.8
2018-07-03T03:08:22.000Z,30.8
2018-07-03T03:10:22.000Z,30.8
2018-07-03T03:11:22.000Z,30.8
2018-07-03T03:12:22.000Z,30.8
2018-07-03T03:14:22.000Z,30.9
2018-07-03T03:15:22.000Z,30.9
2018-07-03T03:17:22.000Z,30.9
2018-07-03T03:18:22.000Z,31
2018-07-03T03:19:22.000Z,31
2018-07-03T03:20:22.000Z,31
2018-07-03T03:22:22.000Z,31
2018-07-03T03:23:22.000Z,31
2018-07-03T03:24:22.000Z,31
2018-07-03T03:26:22.000Z,31.1
2018-07-03T03:28:22.000Z,31
2018-07-03T03:30:22.000Z,30.9
2018-07-03T03:32:22.000Z,30.8
2018-07-03T03:33:22.000Z,30.8
2018-07-03T03:34:22.000Z,30.8
2018-07-03T03:36:22.000Z,30.8
2018-07-03T03:38:22.000Z,30.8
2018-07-03T03:39:22.000Z,30.8
2018-07-03T03:40:22.000Z,30.8
2018-07-03T03:42:22.000Z,30.8
2018-07-03T03:43:22.000Z,30.8
2018-07-03T03:45:22.000Z,30.8
2018-07-03T03:46:22.000Z,30.9
2018-07-03T03:48:22.000Z,30.9
2018-07-03T03:50:07.000Z,30.9
2018-07-03T03:51:22.000Z,30.9
2018-07-03T03:53:22.000Z,30.9
2018-07-03T03:55:22.000Z,30.8
2018-07-03T03:56:22.000Z,30.9
2018-07-03T03:57:22.000Z,30.9
2018-07-03T03:59:22.000Z,31
2018-07-03T04:01:22.000Z,31
2018-07-03T04:03:22.000Z,30.9
2018-07-03T04:04:22.000Z,30.9
2018-07-03T04:06:22.000Z,30.9
2018-07-03T04:07:22.000Z,30.9
2018-07-03T04:09:22.000Z,30.9
2018-07-03T04:11:22.000Z,30.9
2018-07-03T04:13:22.000Z,30.8
2018-07-03T04:15:22.000Z,30.7
2018-07-03T04:16:22.000Z,30.7
2018-07-03T04:17:22.000Z,30.8
2018-07-03T04:19:22.000Z,30.9
2018-07-03T04:21:07.000Z,30.9
2018-07-03T04:22:22.000Z,30.9
2018-07-03T04:23:22.000Z,30.9
2018-07-03T04:25:22.000Z,30.9
2018-07-03T04:27:07.000Z,31
2018-07-03T04:28:22.000Z,30.8
2018-07-03T04:30:22.000Z,30.5
2018-07-03T04:32:22.000Z,30.3
2018-07-03T04:33:22.000Z,30.2
2018-07-03T04:35:22.000Z,30.1
2018-07-03T04:36:22.000Z,30.1
2018-07-03T04:38:22.000Z,30
2018-07-03T04:39:22.000Z,30
2018-07-03T04:40:22.000Z,30
2018-07-03T04:41:22.000Z,30
2018-07-03T04:42:22.000Z,30
2018-07-03T04:43:22.000Z,30.1
2018-07-03T04:45:22.000Z,30
2018-07-03T04:46:22.000Z,30
2018-07-03T04:47:22.000Z,30
2018-07-03T04:49:22.000Z,30
2018-07-03T04:50:22.000Z,30.1
2018-07-03T04:52:22.000Z,30.2
2018-07-03T04:54:22.000Z,30.1
2018-07-03T04:56:22.000Z,29.9
2018-07-03T04:58:22.000Z,29.7
2018-07-03T04:59:22.000Z,29.6
2018-07-03T05:01:22.000Z,29.6
2018-07-03T05:02:22.000Z,29.6
2018-07-03T05:04:22.000Z,29.5
2018-07-03T05:06:22.000Z,29.5
2018-07-03T05:08:22.000Z,29.4
2018-07-03T05:10:07.000Z,29.4
2018-07-03T05:11:22.000Z,29.4
2018-07-03T05:13:22.000Z,29.3
2018-07-03T05:15:22.000Z,29.3
2018-07-03T05:17:22.000Z,29.3
2018-07-03T05:19:22.000Z,29.3
2018-07-03T05:21:22.000Z,29.4
2018-07-03T05:22:22.000Z,29.4
2018-07-03T05:24:22.000Z,29.5
2018-07-03T05:25:22.000Z,29.6
2018-07-03T05:26:22.000Z,29.6
2018-07-03T05:28:07.000Z,29.8
2018-07-03T05:29:22.000Z,29.8
2018-07-03T05:31:22.000Z,29.8
2018-07-03T05:33:22.000Z,29.7
2018-07-03T05:34:22.000Z,29.7
2018-07-03T05:35:22.000Z,29.8
2018-07-03T05:36:22.000Z,29.9
2018-07-03T05:38:22.000Z,30
2018-07-03T05:39:22.000Z,29.9
2018-07-03T05:41:22.000Z,29.7
2018-07-03T05:43:22.000Z,29.5
2018-07-03T05:45:07.000Z,29.4
2018-07-03T05:46:22.000Z,29.2
2018-07-03T05:48:22.000Z,29
2018-07-03T05:49:22.000Z,29
2018-07-03T05:50:22.000Z,29
2018-07-03T05:52:22.000Z,29.1
2018-07-03T05:54:22.000Z,29.1
2018-07-03T05:55:22.000Z,29.1
2018-07-03T05:56:22.000Z,29.1
2018-07-03T05:58:22.000Z,29
2018-07-03T05:59:22.000Z,29
2018-07-03T06:01:07.000Z,29.1
2018-07-03T06:02:22.000Z,29.1
2018-07-03T06:03:22.000Z,29.1
2018-07-03T06:05:22.000Z,29.2
2018-07-03T06:06:22.000Z,29.3
2018-07-03T06:08:22.000Z,29.4
2018-07-03T06:10:22.000Z,29.5
2018-07-03T06:11:22.000Z,29.5
2018-07-03T06:13:07.000Z,29.5
2018-07-03T06:14:22.000Z,29.5
2018-07-03T06:16:22.000Z,29.4
2018-07-03T06:17:22.000Z,29.4
2018-07-03T06:19:22.000Z,29.4
2018-07-03T06:21:22.000Z,29.5
2018-07-03T06:22:22.000Z,29.5
2018-07-03T06:23:22.000Z,29.6
2018-07-03T06:25:22.000Z,29.7
2018-07-03T06:27:22.000Z,29.7
2018-07-03T06:29:22.000Z,29.7
2018-07-03T06:31:07.000Z,29.8
2018-07-03T06:32:22.000Z,29.8
2018-07-03T06:34:22.000Z,29.9
2018-07-03T06:36:22.000Z,30
2018-07-03T06:38:22.000Z,30.1
2018-07-03T06:39:22.000Z,30.1
2018-07-03T06:41:22.000Z,30.2
2018-07-03T06:43:22.000Z,30.2
2018-07-03T06:45:07.000Z,30.2
2018-07-03T06:46:22.000Z,30.2
2018-07-03T06:47:22.000Z,30.3
2018-07-03T06:49:22.000Z,30.4
2018-07-03T06:51:22.000Z,30.4
2018-07-03T06:53:22.000Z,30.3
2018-07-03T06:54:22.000Z,30.3
2018-07-03T06:56:22.000Z,30.4
2018-07-03T06:57:22.000Z,30.5
2018-07-03T06:59:07.000Z,30.6
2018-07-03T07:00:22.000Z,30.7
2018-07-03T07:01:22.000Z,30.8
2018-07-03T07:02:22.000Z,30.9
2018-07-03T07:03:22.000Z,31
2018-07-03T07:05:22.000Z,31.1
2018-07-03T07:07:22.000Z,31.2
2018-07-03T07:08:22.000Z,31.1
2018-07-03T07:09:22.000Z,30.9
2018-07-03T07:11:22.000Z,30.6
2018-07-03T07:13:22.000Z,30.2
2018-07-03T07:14:22.000Z,30.1
2018-07-03T07:16:22.000Z,29.9
2018-07-03T07:18:07.000Z,29.9
2018-07-03T07:19:22.000Z,29.7
2018-07-03T07:21:22.000Z,29.6
2018-07-03T07:23:22.000Z,29.4
2018-07-03T07:24:22.000Z,29.3
2018-07-03T07:26:22.000Z,29.3
2018-07-03T07:28:22.000Z,29.3
2018-07-03T07:30:22.000Z,29.1
2018-07-03T07:32:22.000Z,28.9
2018-07-03T07:34:22.000Z,28.7
2018-07-03T07:35:22.000Z,28.6
2018-07-03T07:37:22.000Z,28.5
2018-07-03T07:38:22.000Z,28.5
2018-07-03T07:40:22.000Z,28.7
2018-07-03T07:41:22.000Z,28.7
2018-07-03T07:43:22.000Z,28.4
2018-07-03T07:45:22.000Z,28
2018-07-03T07:47:22.000Z,27.8
2018-07-03T07:48:22.000Z,27.9
2018-07-03T07:49:22.000Z,28
2018-07-03T07:51:22.000Z,28.3
2018-07-03T07:53:22.000Z,28.5
2018-07-03T07:54:22.000Z,28.6
2018-07-03T07:55:22.000Z,28.7
2018-07-03T07:57:22.000Z,28.8
2018-07-03T07:59:22.000Z,28.7
2018-07-03T08:01:22.000Z,28.5
2018-07-03T08:02:22.000Z,28.4
2018-07-03T08:03:22.000Z,28.4
2018-07-03T08:05:22.000Z,28.4
2018-07-03T08:07:22.000Z,28.5
2018-07-03T08:09:07.000Z,28.6
2018-07-03T08:10:22.000Z,28.6
2018-07-03T08:11:22.000Z,28.7
2018-07-03T08:13:22.000Z,28.8
2018-07-03T08:14:22.000Z,28.8
2018-07-03T08:16:07.000Z,28.8
2018-07-03T08:17:22.000Z,28.8
2018-07-03T08:19:22.000Z,29
2018-07-03T08:20:22.000Z,29.1
2018-07-03T08:22:22.000Z,29.2
2018-07-03T08:23:23.000Z,29.3
2018-07-03T08:24:23.000Z,29.4
2018-07-03T08:26:23.000Z,29.6
2018-07-03T08:28:22.000Z,29.8
2018-07-03T08:29:23.000Z,29.9
2018-07-03T08:31:22.000Z,30.1
2018-07-03T08:33:22.000Z,30.2
2018-07-03T08:35:23.000Z,30.4
2018-07-03T08:37:22.000Z,31.2
2018-07-03T08:39:22.000Z,32.1
2018-07-03T08:41:22.000Z,32.1
2018-07-03T08:42:23.000Z,32
2018-07-03T08:43:23.000Z,31.9
2018-07-03T08:45:23.000Z,32
2018-07-03T08:47:23.000Z,31.7
2018-07-03T08:48:23.000Z,31.5
2018-07-03T08:49:23.000Z,31.3
2018-07-03T08:50:23.000Z,31.1
2018-07-03T08:52:22.000Z,30.9
2018-07-03T08:53:22.000Z,30.8
2018-07-03T08:55:23.000Z,30.7
2018-07-03T08:57:22.000Z,30.7
2018-07-03T08:58:23.000Z,30.7
2018-07-03T08:59:23.000Z,30.6
2018-07-03T09:00:23.000Z,30.6
2018-07-03T09:02:23.000Z,30.3
2018-07-03T09:03:23.000Z,30.2
2018-07-03T09:04:23.000Z,30.2
2018-07-03T09:06:22.000Z,29.9
2018-07-03T09:07:23.000Z,29.9
2018-07-03T09:11:23.000Z,29.8
2018-07-03T09:13:09.000Z,29.6
2018-07-03T09:14:09.000Z,29.6
2018-07-03T09:16:09.000Z,29.8
2018-07-03T09:18:09.000Z,30
2018-07-03T09:19:09.000Z,30.1
2018-07-03T09:21:09.000Z,30
2018-07-03T09:23:09.000Z,29.9
2018-07-03T09:25:09.000Z,30.1
2018-07-03T09:26:09.000Z,30.2
2018-07-03T09:28:08.000Z,30.1
2018-07-03T09:29:08.000Z,30.1
2018-07-03T09:30:08.000Z,30
2018-07-03T09:32:08.000Z,29.8
2018-07-03T09:33:08.000Z,29.7
2018-07-03T09:34:08.000Z,29.6
2018-07-03T09:36:08.000Z,29.5
2018-07-03T09:38:08.000Z,29.4
2018-07-03T09:39:08.000Z,29.4
2018-07-03T09:41:08.000Z,29.5
2018-07-03T09:42:08.000Z,29.7
2018-07-03T09:44:08.000Z,30.1
2018-07-03T09:45:08.000Z,30.2
2018-07-03T09:47:08.000Z,30.4
2018-07-03T09:48:08.000Z,30.5
2018-07-03T09:49:08.000Z,30.6
2018-07-03T09:51:08.000Z,30.5
2018-07-03T09:53:08.000Z,30.2
2018-07-03T09:54:53.000Z,29.9
2018-07-03T09:56:08.000Z,29.9
2018-07-03T09:57:08.000Z,30
2018-07-03T09:58:08.000Z,30.1
2018-07-03T09:59:08.000Z,30.2
2018-07-03T10:00:08.000Z,30.3
2018-07-03T10:02:08.000Z,30.6
2018-07-03T10:03:08.000Z,30.7
2018-07-03T10:05:08.000Z,31
2018-07-03T10:06:08.000Z,31.1
2018-07-03T10:07:08.000Z,31.2
2018-07-03T10:09:08.000Z,31.4
2018-07-03T10:11:08.000Z,31.5
2018-07-03T10:13:08.000Z,31.6
2018-07-03T10:15:08.000Z,31.7
2018-07-03T10:16:08.000Z,31.8
2018-07-03T10:18:08.000Z,32
2018-07-03T10:20:08.000Z,32.1
2018-07-03T10:22:08.000Z,32.2
2018-07-03T10:24:08.000Z,32.2
2018-07-03T10:25:08.000Z,32.2
2018-07-03T10:27:08.000Z,32.4
2018-07-03T10:29:08.000Z,32.4
2018-07-03T10:31:09.000Z,32.5
2018-07-03T10:33:09.000Z,32.5
2018-07-03T10:35:09.000Z,32.4
2018-07-03T10:37:09.000Z,32.4
2018-07-03T10:39:09.000Z,32.4
2018-07-03T10:41:09.000Z,32.5
2018-07-03T10:43:09.000Z,32.6
2018-07-03T10:44:09.000Z,32.7
2018-07-03T10:45:09.000Z,32.8
2018-07-03T10:47:09.000Z,32.9
2018-07-03T10:49:09.000Z,33
2018-07-03T10:50:09.000Z,33
2018-07-03T10:52:09.000Z,33.1
2018-07-03T10:53:09.000Z,33.1
2018-07-03T10:55:09.000Z,33.2
2018-07-03T10:56:09.000Z,33.2
2018-07-03T10:58:09.000Z,33.3
2018-07-03T11:00:09.000Z,33.2
2018-07-03T11:01:09.000Z,33.2
2018-07-03T11:03:09.000Z,33.2
2018-07-03T11:04:09.000Z,33.2
2018-07-03T11:06:09.000Z,33.3
2018-07-03T11:07:09.000Z,33.3
2018-07-03T11:09:09.000Z,33.3
2018-07-03T11:11:09.000Z,33.2
2018-07-03T11:13:09.000Z,33.2
2018-07-03T11:15:09.000Z,33.2
2018-07-03T11:16:09.000Z,33.2
2018-07-03T11:18:09.000Z,33.3
2018-07-03T11:19:09.000Z,33.4
2018-07-03T11:20:09.000Z,33.5
2018-07-03T11:21:09.000Z,33.5
2018-07-03T11:23:09.000Z,33.6
2018-07-03T11:25:09.000Z,33.7
2018-07-03T11:27:09.000Z,33.6
2018-07-03T11:28:09.000Z,33.6
2018-07-03T11:30:09.000Z,33.6
2018-07-03T11:32:09.000Z,33.6
2018-07-03T11:34:08.000Z,33.6
2018-07-03T11:35:08.000Z,33.6
2018-07-03T11:37:08.000Z,33.7
2018-07-03T11:39:08.000Z,33.6
2018-07-03T11:40:08.000Z,33.5
2018-07-03T11:42:08.000Z,33.4
2018-07-03T11:43:08.000Z,33.3
2018-07-03T11:45:08.000Z,33.2
2018-07-03T11:46:08.000Z,33.2
2018-07-03T11:48:08.000Z,33.3
2018-07-03T11:50:08.000Z,33.3
2018-07-03T11:52:09.000Z,33.2
2018-07-03T11:54:08.000Z,32.9
2018-07-03T11:56:08.000Z,32.8
2018-07-03T11:58:08.000Z,32.8
2018-07-03T11:59:08.000Z,32.8
2018-07-03T12:00:08.000Z,32.9
2018-07-03T12:02:08.000Z,33
2018-07-03T12:03:08.000Z,33.1
2018-07-03T12:05:08.000Z,33.3
2018-07-03T12:06:08.000Z,33.3
2018-07-03T12:08:08.000Z,33.4
2018-07-03T12:09:53.000Z,33.4
2018-07-03T12:11:08.000Z,33.4
2018-07-03T12:13:08.000Z,33.4
2018-07-03T12:14:08.000Z,33.4
2018-07-03T12:16:08.000Z,33.3
2018-07-03T12:18:08.000Z,32.8
2018-07-03T12:20:08.000Z,32.5
2018-07-03T12:21:53.000Z,32.4
2018-07-03T12:23:08.000Z,32.3
2018-07-03T12:24:08.000Z,32.3
2018-07-03T12:26:08.000Z,32.2
2018-07-03T12:28:08.000Z,32.2
2018-07-03T12:29:53.000Z,32.2
2018-07-03T12:31:08.000Z,32.2
2018-07-03T12:32:08.000Z,32.3
2018-07-03T12:33:09.000Z,32.3
2018-07-03T12:35:08.000Z,32
2018-07-03T12:37:08.000Z,31.9
2018-07-03T12:38:09.000Z,32
2018-07-03T12:40:09.000Z,32.2
2018-07-03T12:42:09.000Z,32.2
2018-07-03T12:43:09.000Z,32.3
2018-07-03T12:45:09.000Z,32.2
2018-07-03T12:47:09.000Z,32.2
2018-07-03T12:49:09.000Z,32.2
2018-07-03T12:50:09.000Z,32.3
2018-07-03T12:51:09.000Z,32.4
2018-07-03T12:53:09.000Z,32.6
2018-07-03T12:55:09.000Z,32.8
2018-07-03T12:57:09.000Z,33
2018-07-03T12:59:09.000Z,33.1
2018-07-03T13:00:09.000Z,33.2
2018-07-03T13:01:09.000Z,33.3
2018-07-03T13:03:09.000Z,33.4
2018-07-03T13:05:09.000Z,33.5
2018-07-03T13:06:09.000Z,33.5
2018-07-03T13:08:09.000Z,33.5
2018-07-03T13:09:09.000Z,33.6
2018-07-03T13:10:53.000Z,33.7
2018-07-03T13:12:09.000Z,33.7
2018-07-03T13:13:53.000Z,33.8
2018-07-03T13:15:09.000Z,33.8
2018-07-03T13:16:09.000Z,33.8
2018-07-03T13:17:09.000Z,33.9
2018-07-03T13:18:09.000Z,34
2018-07-03T13:20:09.000Z,34.2
2018-07-03T13:22:09.000Z,34.2
2018-07-03T13:23:53.000Z,34.1
2018-07-03T13:25:09.000Z,34.1
2018-07-03T13:27:09.000Z,34
2018-07-03T13:29:09.000Z,33.7
2018-07-03T13:30:09.000Z,33.7
2018-07-03T13:32:09.000Z,33.6
2018-07-03T13:33:53.000Z,33.6
2018-07-03T13:35:09.000Z,33.6
2018-07-03T13:37:09.000Z,33.7
2018-07-03T13:39:09.000Z,33.7
2018-07-03T13:40:09.000Z,33.7
2018-07-03T13:41:09.000Z,33.8
2018-07-03T13:43:09.000Z,34
2018-07-03T13:45:09.000Z,34
2018-07-03T13:47:09.000Z,33.9
2018-07-03T13:48:09.000Z,33.9
2018-07-03T13:50:09.000Z,34
2018-07-03T13:52:09.000Z,33.9
2018-07-03T13:53:09.000Z,33.9
2018-07-03T13:54:54.000Z,34
2018-07-03T13:56:09.000Z,34
2018-07-03T13:58:09.000Z,33.9
2018-07-03T13:59:09.000Z,33.9
2018-07-03T14:01:09.000Z,33.9
2018-07-03T14:02:09.000Z,33.9
2018-07-03T14:04:09.000Z,34
2018-07-03T14:06:09.000Z,33.9
2018-07-03T14:07:09.000Z,33.9
2018-07-03T14:08:09.000Z,34
2018-07-03T14:09:54.000Z,34
2018-07-03T14:11:09.000Z,34
2018-07-03T14:13:09.000Z,33.9
2018-07-03T14:15:09.000Z,33.8
2018-07-03T14:16:09.000Z,33.8
2018-07-03T14:17:09.000Z,33.8
2018-07-03T14:19:09.000Z,33.8
2018-07-03T14:20:54.000Z,33.8
2018-07-03T14:22:09.000Z,33.8
2018-07-03T14:24:09.000Z,33.8
2018-07-03T14:26:09.000Z,33.7
2018-07-03T14:27:09.000Z,33.7
2018-07-03T14:29:09.000Z,33.6
2018-07-03T14:30:09.000Z,33.6
2018-07-03T14:31:09.000Z,33.6
2018-07-03T14:32:09.000Z,33.7
2018-07-03T14:34:09.000Z,33.7
2018-07-03T14:35:54.000Z,33.7
2018-07-03T14:37:09.000Z,33.7
2018-07-03T14:39:09.000Z,33.7
2018-07-03T14:41:09.000Z,33.6
2018-07-03T14:42:09.000Z,33.6
2018-07-03T14:44:09.000Z,33.7
2018-07-03T14:46:08.000Z,33.7
2018-07-03T14:47:08.000Z,33.6
2018-07-03T14:49:08.000Z,33.7
2018-07-03T14:51:08.000Z,33.7
2018-07-03T14:53:08.000Z,33.7
2018-07-03T14:54:08.000Z,33.7
2018-07-03T14:56:08.000Z,33.6
2018-07-03T14:58:08.000Z,33.5
2018-07-03T14:59:53.000Z,33.5
2018-07-03T15:01:08.000Z,33.5
2018-07-03T15:02:08.000Z,33.5
2018-07-03T15:04:08.000Z,33.5
2018-07-03T15:06:08.000Z,33.5
2018-07-03T15:08:08.000Z,33.5
2018-07-03T15:09:08.000Z,33.5
2018-07-03T15:11:08.000Z,33.5
2018-07-03T15:12:08.000Z,33.5
2018-07-03T15:13:08.000Z,33.6
2018-07-03T15:14:08.000Z,33.6
2018-07-03T15:15:53.000Z,33.7
2018-07-03T15:17:08.000Z,33.6
2018-07-03T15:18:08.000Z,33.6
2018-07-03T15:20:08.000Z,33.6
2018-07-03T15:21:08.000Z,33.6
2018-07-03T15:23:08.000Z,33.6
2018-07-03T15:25:08.000Z,33.6
2018-07-03T15:26:53.000Z,33.6
2018-07-03T15:28:08.000Z,33.5
2018-07-03T15:29:08.000Z,33.5
2018-07-03T15:31:08.000Z,33.5
2018-07-03T15:32:08.000Z,33.5
2018-07-03T15:34:08.000Z,33.6
2018-07-03T15:36:08.000Z,33.5
2018-07-03T15:38:08.000Z,33.5
2018-07-03T15:40:08.000Z,33.4
2018-07-03T15:42:08.000Z,33.3
2018-07-03T15:44:08.000Z,33.2
2018-07-03T15:45:08.000Z,33.2
2018-07-03T15:46:08.000Z,33.2
2018-07-03T15:48:08.000Z,33.3
2018-07-03T15:50:08.000Z,33.3
2018-07-03T15:52:08.000Z,33.3
2018-07-03T15:54:08.000Z,33.3
2018-07-03T15:55:08.000Z,33.3
2018-07-03T15:56:08.000Z,33.3
2018-07-03T15:57:08.000Z,33.4
2018-07-03T15:58:08.000Z,33.5
2018-07-03T16:00:08.000Z,33.5
2018-07-03T16:02:08.000Z,33.5
2018-07-03T16:04:08.000Z,33.5
2018-07-03T16:05:08.000Z,33.5
2018-07-03T16:06:08.000Z,33.5
2018-07-03T16:07:08.000Z,33.6
2018-07-03T16:09:08.000Z,33.6
2018-07-03T16:10:08.000Z,33.7
2018-07-03T16:12:08.000Z,33.7
2018-07-03T16:13:08.000Z,33.6
2018-07-03T16:14:53.000Z,33.7
2018-07-03T16:16:08.000Z,33.6
2018-07-03T16:17:08.000Z,33.6
2018-07-03T16:19:08.000Z,33.5
2018-07-03T16:20:08.000Z,33.5
2018-07-03T16:21:08.000Z,33.5
2018-07-03T16:22:08.000Z,33.5
2018-07-03T16:24:08.000Z,33.5
2018-07-03T16:25:08.000Z,33.5
2018-07-03T16:27:08.000Z,33.6
2018-07-03T16:28:08.000Z,33.6
2018-07-03T16:29:08.000Z,33.6
2018-07-03T16:30:08.000Z,33.7
2018-07-03T16:32:08.000Z,33.6
2018-07-03T16:33:08.000Z,33.6
2018-07-03T16:35:08.000Z,33.5
2018-07-03T16:37:08.000Z,33.4
2018-07-03T16:39:08.000Z,33.3
2018-07-03T16:41:08.000Z,33.3
2018-07-03T16:42:08.000Z,33.3
2018-07-03T16:44:08.000Z,33.4
2018-07-03T16:45:08.000Z,33.4
2018-07-03T16:47:08.000Z,33.4
2018-07-03T16:49:08.000Z,33.4
2018-07-03T16:50:08.000Z,33.4
2018-07-03T16:52:08.000Z,33.5
2018-07-03T16:54:09.000Z,33.4
2018-07-03T16:56:09.000Z,33.3
2018-07-03T16:57:09.000Z,33.3
2018-07-03T16:58:09.000Z,33.3
2018-07-03T16:59:54.000Z,33.5
2018-07-03T17:01:09.000Z,33.5
2018-07-03T17:02:54.000Z,33.5
2018-07-03T17:04:09.000Z,33.5
2018-07-03T17:05:09.000Z,33.5
2018-07-03T17:07:09.000Z,33.5
2018-07-03T17:08:09.000Z,33.6
2018-07-03T17:10:09.000Z,33.6
2018-07-03T17:12:09.000Z,33.6
2018-07-03T17:14:09.000Z,33.6
2018-07-03T17:15:09.000Z,33.5
2018-07-03T17:16:09.000Z,33.6
2018-07-03T17:17:09.000Z,33.6
2018-07-03T17:19:09.000Z,33.7
2018-07-03T17:21:09.000Z,33.7
2018-07-03T17:23:09.000Z,33.6
2018-07-03T17:24:09.000Z,33.6
2018-07-03T17:26:09.000Z,33.6
2018-07-03T17:27:09.000Z,33.7
2018-07-03T17:29:09.000Z,33.7
2018-07-03T17:31:09.000Z,33.6
2018-07-03T17:32:54.000Z,33.6
2018-07-03T17:34:09.000Z,33.5
2018-07-03T17:36:09.000Z,33.5
2018-07-03T17:37:09.000Z,33.5
2018-07-03T17:39:09.000Z,33.5
2018-07-03T17:40:09.000Z,33.6
2018-07-03T17:42:09.000Z,33.6
2018-07-03T17:43:09.000Z,33.6
2018-07-03T17:44:09.000Z,33.6
2018-07-03T17:46:09.000Z,33.6
2018-07-03T17:48:09.000Z,33.5
2018-07-03T17:50:09.000Z,33.5
2018-07-03T17:51:09.000Z,33.5
2018-07-03T17:52:09.000Z,33.5
2018-07-03T17:53:54.000Z,33.6
2018-07-03T17:55:09.000Z,33.6
2018-07-03T17:56:09.000Z,33.6
2018-07-03T17:58:09.000Z,33.6
2018-07-03T17:59:09.000Z,33.6
2018-07-03T18:00:54.000Z,33.6
2018-07-03T18:02:09.000Z,33.6
2018-07-03T18:03:54.000Z,33.6
2018-07-03T18:05:09.000Z,33.5
2018-07-03T18:06:54.000Z,33.5
2018-07-03T18:08:09.000Z,33.5
2018-07-03T18:10:09.000Z,33.5
2018-07-03T18:11:09.000Z,33.5
2018-07-03T18:13:09.000Z,33.5
2018-07-03T18:14:09.000Z,33.5
2018-07-03T18:15:54.000Z,33.6
2018-07-03T18:17:09.000Z,33.5
2018-07-03T18:18:09.000Z,33.6
2018-07-03T18:19:09.000Z,33.6
2018-07-03T18:20:54.000Z,33.7
2018-07-03T18:22:09.000Z,33.6
2018-07-03T18:23:09.000Z,33.6
2018-07-03T18:24:54.000Z,33.7
2018-07-03T18:29:09.000Z,33.1
2018-07-03T18:30:55.000Z,33
2018-07-03T18:31:55.000Z,33
2018-07-03T18:33:55.000Z,33.2
2018-07-03T18:35:55.000Z,33.2
2018-07-03T18:37:55.000Z,33.2
2018-07-03T18:39:40.000Z,33.2
2018-07-03T18:40:55.000Z,33.2
2018-07-03T18:41:55.000Z,33.2
2018-07-03T18:43:55.000Z,33.3
2018-07-03T18:44:55.000Z,33.3
2018-07-03T18:45:55.000Z,33.4
2018-07-03T18:46:55.000Z,33.5
2018-07-03T18:48:55.000Z,33.5
2018-07-03T18:49:55.000Z,33.6
2018-07-03T18:50:55.000Z,33.6
2018-07-03T18:51:55.000Z,33.7
2018-07-03T18:53:55.000Z,33.6
2018-07-03T18:54:55.000Z,33.6
2018-07-03T18:55:55.000Z,33.6
2018-07-03T18:56:55.000Z,33.6
2018-07-03T18:57:55.000Z,33.6
2018-07-03T18:59:55.000Z,33.5
2018-07-03T19:00:55.000Z,33.5
2018-07-03T19:02:55.000Z,33.5
2018-07-03T19:04:55.000Z,33.5
2018-07-03T19:06:55.000Z,33.4
2018-07-03T19:08:55.000Z,33.3
2018-07-03T19:09:55.000Z,33.2
2018-07-03T19:11:55.000Z,33.2
2018-07-03T19:13:55.000Z,33.2
2018-07-03T19:14:55.000Z,33.2
2018-07-03T19:15:55.000Z,33.2
2018-07-03T19:17:55.000Z,33.3
2018-07-03T19:18:55.000Z,33.3
2018-07-03T19:20:55.000Z,33.3
2018-07-03T19:21:55.000Z,33.2
2018-07-03T19:22:55.000Z,33.3
2018-07-03T19:23:55.000Z,33.3
2018-07-03T19:24:55.000Z,33.4
2018-07-03T19:26:55.000Z,33.4
2018-07-03T19:28:55.000Z,33.4
2018-07-03T19:30:55.000Z,33.3
2018-07-03T19:32:55.000Z,33.2
2018-07-03T19:34:55.000Z,33.1
2018-07-03T19:36:40.000Z,33.1
2018-07-03T19:37:55.000Z,33
2018-07-03T19:39:55.000Z,33
2018-07-03T19:40:55.000Z,33
2018-07-03T19:41:55.000Z,33
2018-07-03T19:42:55.000Z,33.1
2018-07-03T19:44:55.000Z,33.1
2018-07-03T19:46:55.000Z,33.1
2018-07-03T19:47:55.000Z,33.1
2018-07-03T19:49:40.000Z,33.1
2018-07-03T19:50:55.000Z,33.1
2018-07-03T19:52:55.000Z,33
2018-07-03T19:54:55.000Z,32.9
2018-07-03T19:55:55.000Z,32.9
2018-07-03T19:57:55.000Z,32.9
2018-07-03T19:58:55.000Z,32.9
2018-07-03T20:00:55.000Z,32.9
2018-07-03T20:02:55.000Z,32.9
2018-07-03T20:03:55.000Z,32.9
2018-07-03T20:04:55.000Z,32.9
2018-07-03T20:05:55.000Z,33
2018-07-03T20:07:55.000Z,33
2018-07-03T20:09:55.000Z,33
2018-07-03T20:10:55.000Z,33
2018-07-03T20:12:55.000Z,33
2018-07-03T20:14:40.000Z,33
2018-07-03T20:15:55.000Z,32.9
2018-07-03T20:16:55.000Z,32.9
2018-07-03T20:17:55.000Z,33
2018-07-03T20:18:55.000Z,33
2018-07-03T20:20:55.000Z,33.1
2018-07-03T20:22:55.000Z,33
2018-07-03T20:24:55.000Z,33
2018-07-03T20:26:55.000Z,32.9
2018-07-03T20:27:55.000Z,32.9
2018-07-03T20:29:55.000Z,32.9
2018-07-03T20:31:55.000Z,32.9
2018-07-03T20:32:55.000Z,32.9
2018-07-03T20:34:55.000Z,32.9
2018-07-03T20:36:55.000Z,32.9
2018-07-03T20:38:55.000Z,32.8
2018-07-03T20:39:55.000Z,32.8
2018-07-03T20:41:55.000Z,32.9
2018-07-03T20:43:55.000Z,32.8
2018-07-03T20:44:55.000Z,32.8
2018-07-03T20:45:55.000Z,32.9
2018-07-03T20:47:40.000Z,33
2018-07-03T20:48:55.000Z,32.9
2018-07-03T20:50:55.000Z,32.9
2018-07-03T20:51:55.000Z,32.9
2018-07-03T20:53:55.000Z,32.9
2018-07-03T20:55:55.000Z,32.9
2018-07-03T20:57:55.000Z,32.8